sensor_id;sensor_type;location;lat;lon;timestamp;pressure;altitude;pressure_sealevel;temperature;humidity
71638;BME280;59485;43.542;-5.676;2023-03-04T00:00:12;102344.16;;;7.12;100.00
71638;BME280;59485;43.542;-5.676;2023-03-04T00:02:37;102343.63;;;7.19;100.00
71638;BME280;59485;43.542;-5.676;2023-03-04T00:05:03;102342.63;;;7.20;100.00
71638;BME280;59485;43.542;-5.676;2023-03-04T00:07:41;102341.88;;;7.18;100.00
71638;BME280;59485;43.542;-5.676;2023-03-04T00:10:15;102349.47;;;7.14;100.00
71638;BME280;59485;43.542;-5.676;2023-03-04T00:12:41;102344.38;;;7.21;100.00
71638;BME280;59485;43.542;-5.676;2023-03-04T00:15:09;102346.22;;;7.20;100.00
71638;BME280;59485;43.542;-5.676;2023-03-04T00:17:35;102346.34;;;7.19;100.00
71638;BME280;59485;43.542;-5.676;2023-03-04T00:20:00;102347.47;;;7.16;100.00
71638;BME280;59485;43.542;-5.676;2023-03-04T00:22:25;102350.34;;;7.14;100.00
71638;BME280;59485;43.542;-5.676;2023-03-04T00:25:06;102344.72;;;7.16;100.00
71638;BME280;59485;43.542;-5.676;2023-03-04T00:27:31;102347.75;;;7.13;100.00
71638;BME280;59485;43.542;-5.676;2023-03-04T00:29:57;102349.34;;;7.15;100.00
71638;BME280;59485;43.542;-5.676;2023-03-04T00:32:22;102348.31;;;7.16;100.00
71638;BME280;59485;43.542;-5.676;2023-03-04T00:37:22;102347.94;;;7.21;100.00
71638;BME280;59485;43.542;-5.676;2023-03-04T00:39:47;102343.81;;;7.27;100.00
71638;BME280;59485;43.542;-5.676;2023-03-04T00:42:18;102334.94;;;7.25;100.00
71638;BME280;59485;43.542;-5.676;2023-03-04T00:44:44;102343.94;;;7.25;100.00
71638;BME280;59485;43.542;-5.676;2023-03-04T00:47:15;102345.97;;;7.23;100.00
71638;BME280;59485;43.542;-5.676;2023-03-04T00:49:41;102345.97;;;7.23;100.00
71638;BME280;59485;43.542;-5.676;2023-03-04T00:54:31;102334.19;;;7.23;100.00
71638;BME280;59485;43.542;-5.676;2023-03-04T00:59:28;102327.09;;;7.31;100.00
71638;BME280;59485;43.542;-5.676;2023-03-04T01:01:57;102331.56;;;7.32;100.00
71638;BME280;59485;43.542;-5.676;2023-03-04T01:04:29;102326.44;;;7.39;100.00
71638;BME280;59485;43.542;-5.676;2023-03-04T01:06:57;102323.44;;;7.42;100.00
71638;BME280;59485;43.542;-5.676;2023-03-04T01:09:22;102325.31;;;7.41;100.00
71638;BME280;59485;43.542;-5.676;2023-03-04T01:11:48;102320.72;;;7.42;100.00
71638;BME280;59485;43.542;-5.676;2023-03-04T01:14:13;102317.72;;;7.45;100.00
71638;BME280;59485;43.542;-5.676;2023-03-04T01:16:51;102320.72;;;7.42;100.00
71638;BME280;59485;43.542;-5.676;2023-03-04T01:19:16;102321.97;;;7.38;100.00
71638;BME280;59485;43.542;-5.676;2023-03-04T01:21:42;102319.09;;;7.39;100.00
71638;BME280;59485;43.542;-5.676;2023-03-04T01:24:07;102316.38;;;7.39;100.00
71638;BME280;59485;43.542;-5.676;2023-03-04T01:26:42;102316.25;;;7.41;100.00
71638;BME280;59485;43.542;-5.676;2023-03-04T01:29:07;102318.25;;;7.39;100.00
71638;BME280;59485;43.542;-5.676;2023-03-04T01:31:39;102309.81;;;7.42;100.00
71638;BME280;59485;43.542;-5.676;2023-03-04T01:36:38;102308.44;;;7.36;100.00
71638;BME280;59485;43.542;-5.676;2023-03-04T01:39:03;102307.34;;;7.39;100.00
71638;BME280;59485;43.542;-5.676;2023-03-04T01:41:29;102301.63;;;7.42;100.00
71638;BME280;59485;43.542;-5.676;2023-03-04T01:44:00;102298.47;;;7.46;100.00
71638;BME280;59485;43.542;-5.676;2023-03-04T01:46:29;102297.50;;;7.47;100.00
71638;BME280;59485;43.542;-5.676;2023-03-04T01:48:55;102292.63;;;7.51;100.00
71638;BME280;59485;43.542;-5.676;2023-03-04T01:51:21;102293.09;;;7.56;100.00
71638;BME280;59485;43.542;-5.676;2023-03-04T01:53:47;102294.56;;;7.60;100.00
71638;BME280;59485;43.542;-5.676;2023-03-04T01:59:14;102294.69;;;7.59;100.00
71638;BME280;59485;43.542;-5.676;2023-03-04T02:01:44;102286.38;;;7.60;100.00
71638;BME280;59485;43.542;-5.676;2023-03-04T02:04:14;102281.50;;;7.64;100.00
71638;BME280;59485;43.542;-5.676;2023-03-04T02:06:40;102281.38;;;7.65;100.00
71638;BME280;59485;43.542;-5.676;2023-03-04T02:11:34;102275.25;;;7.73;100.00
71638;BME280;59485;43.542;-5.676;2023-03-04T02:14:00;102281.56;;;7.73;100.00
71638;BME280;59485;43.542;-5.676;2023-03-04T02:16:26;102268.91;;;7.72;100.00
71638;BME280;59485;43.542;-5.676;2023-03-04T02:19:04;102263.59;;;7.71;100.00
71638;BME280;59485;43.542;-5.676;2023-03-04T02:21:31;102262.72;;;7.70;100.00
71638;BME280;59485;43.542;-5.676;2023-03-04T02:26:44;102265.31;;;7.72;100.00
71638;BME280;59485;43.542;-5.676;2023-03-04T02:29:11;102259.72;;;7.73;100.00
71638;BME280;59485;43.542;-5.676;2023-03-04T02:31:47;102257.13;;;7.72;100.00
71638;BME280;59485;43.542;-5.676;2023-03-04T02:34:21;102261.03;;;7.79;100.00
71638;BME280;59485;43.542;-5.676;2023-03-04T02:36:50;102249.13;;;7.80;100.00
71638;BME280;59485;43.542;-5.676;2023-03-04T02:41:45;102245.94;;;7.75;100.00
71638;BME280;59485;43.542;-5.676;2023-03-04T02:44:32;102251.53;;;7.73;100.00
71638;BME280;59485;43.542;-5.676;2023-03-04T02:46:56;102243.34;;;7.73;100.00
71638;BME280;59485;43.542;-5.676;2023-03-04T02:49:22;102253.88;;;7.78;100.00
71638;BME280;59485;43.542;-5.676;2023-03-04T02:54:38;102255.25;;;7.72;100.00
71638;BME280;59485;43.542;-5.676;2023-03-04T02:57:05;102246.34;;;7.70;100.00
71638;BME280;59485;43.542;-5.676;2023-03-04T02:59:48;102240.88;;;7.70;100.00
71638;BME280;59485;43.542;-5.676;2023-03-04T03:02:14;102242.03;;;7.68;100.00
71638;BME280;59485;43.542;-5.676;2023-03-04T03:04:39;102245.63;;;7.68;100.00
71638;BME280;59485;43.542;-5.676;2023-03-04T03:07:05;102244.91;;;7.66;100.00
71638;BME280;59485;43.542;-5.676;2023-03-04T03:09:42;102241.19;;;7.67;100.00
71638;BME280;59485;43.542;-5.676;2023-03-04T03:12:11;102239.63;;;7.74;100.00
71638;BME280;59485;43.542;-5.676;2023-03-04T03:14:36;102227.56;;;7.77;100.00
71638;BME280;59485;43.542;-5.676;2023-03-04T03:17:11;102226.72;;;7.76;100.00
71638;BME280;59485;43.542;-5.676;2023-03-04T03:19:39;102224.56;;;7.80;100.00
71638;BME280;59485;43.542;-5.676;2023-03-04T03:22:14;102217.97;;;7.82;100.00
71638;BME280;59485;43.542;-5.676;2023-03-04T03:24:39;102213.25;;;7.84;100.00
71638;BME280;59485;43.542;-5.676;2023-03-04T03:27:04;102216.38;;;7.80;100.00
71638;BME280;59485;43.542;-5.676;2023-03-04T03:29:42;102220.97;;;7.79;100.00
71638;BME280;59485;43.542;-5.676;2023-03-04T03:32:08;102217.38;;;7.79;100.00
71638;BME280;59485;43.542;-5.676;2023-03-04T03:34:33;102216.78;;;7.75;100.00
71638;BME280;59485;43.542;-5.676;2023-03-04T03:36:58;102213.94;;;7.77;100.00
71638;BME280;59485;43.542;-5.676;2023-03-04T03:39:24;102218.53;;;7.76;100.00
71638;BME280;59485;43.542;-5.676;2023-03-04T03:41:49;102217.22;;;7.80;100.00
71638;BME280;59485;43.542;-5.676;2023-03-04T03:44:14;102216.06;;;7.73;100.00
71638;BME280;59485;43.542;-5.676;2023-03-04T03:46:43;102218.78;;;7.73;100.00
71638;BME280;59485;43.542;-5.676;2023-03-04T03:49:08;102224.50;;;7.70;100.00
71638;BME280;59485;43.542;-5.676;2023-03-04T03:53:59;102213.31;;;7.73;100.00
71638;BME280;59485;43.542;-5.676;2023-03-04T03:56:24;102212.59;;;7.71;100.00
71638;BME280;59485;43.542;-5.676;2023-03-04T03:58:49;102225.97;;;7.74;100.00
71638;BME280;59485;43.542;-5.676;2023-03-04T04:01:15;102227.97;;;7.72;100.00
71638;BME280;59485;43.542;-5.676;2023-03-04T04:03:40;102224.97;;;7.75;100.00
71638;BME280;59485;43.542;-5.676;2023-03-04T04:06:15;102225.84;;;7.76;100.00
71638;BME280;59485;43.542;-5.676;2023-03-04T04:08:43;102227.97;;;7.72;100.00
71638;BME280;59485;43.542;-5.676;2023-03-04T04:11:18;102225.38;;;7.71;100.00
71638;BME280;59485;43.542;-5.676;2023-03-04T04:13:43;102225.09;;;7.74;100.00
71638;BME280;59485;43.542;-5.676;2023-03-04T04:16:11;102224.25;;;7.73;100.00
71638;BME280;59485;43.542;-5.676;2023-03-04T04:18:37;102216.47;;;7.69;100.00
71638;BME280;59485;43.542;-5.676;2023-03-04T04:21:02;102221.66;;;7.72;100.00
71638;BME280;59485;43.542;-5.676;2023-03-04T04:23:28;102229.97;;;7.70;100.00
71638;BME280;59485;43.542;-5.676;2023-03-04T04:25:54;102226.38;;;7.70;100.00
71638;BME280;59485;43.542;-5.676;2023-03-04T04:28:19;102233.00;;;7.67;100.00
71638;BME280;59485;43.542;-5.676;2023-03-04T04:30:54;102234.13;;;7.65;100.00
71638;BME280;59485;43.542;-5.676;2023-03-04T04:33:20;102235.38;;;7.61;100.00
71638;BME280;59485;43.542;-5.676;2023-03-04T04:35:45;102228.91;;;7.62;100.00
71638;BME280;59485;43.542;-5.676;2023-03-04T04:38:13;102229.78;;;7.62;100.00
71638;BME280;59485;43.542;-5.676;2023-03-04T04:40:48;102235.25;;;7.62;100.00
71638;BME280;59485;43.542;-5.676;2023-03-04T04:43:13;102230.78;;;7.61;100.00
71638;BME280;59485;43.542;-5.676;2023-03-04T04:45:42;102235.13;;;7.64;100.00
71638;BME280;59485;43.542;-5.676;2023-03-04T04:48:13;102234.13;;;7.65;100.00
71638;BME280;59485;43.542;-5.676;2023-03-04T04:50:52;102242.56;;;7.62;100.00
71638;BME280;59485;43.542;-5.676;2023-03-04T04:53:18;102249.44;;;7.56;100.00
71638;BME280;59485;43.542;-5.676;2023-03-04T04:55:49;102245.97;;;7.54;100.00
71638;BME280;59485;43.542;-5.676;2023-03-04T04:58:24;102242.25;;;7.55;100.00
71638;BME280;59485;43.542;-5.676;2023-03-04T05:00:49;102249.44;;;7.56;100.00
71638;BME280;59485;43.542;-5.676;2023-03-04T05:03:23;102244.53;;;7.50;100.00
71638;BME280;59485;43.542;-5.676;2023-03-04T05:05:55;102245.66;;;7.47;100.00
71638;BME280;59485;43.542;-5.676;2023-03-04T05:08:23;102248.75;;;7.43;100.00
71638;BME280;59485;43.542;-5.676;2023-03-04T05:10:49;102257.97;;;7.42;100.00
71638;BME280;59485;43.542;-5.676;2023-03-04T05:13:14;102251.78;;;7.40;100.00
71638;BME280;59485;43.542;-5.676;2023-03-04T05:15:39;102258.97;;;7.41;100.00
71638;BME280;59485;43.542;-5.676;2023-03-04T05:18:05;102259.97;;;7.40;100.00
71638;BME280;59485;43.542;-5.676;2023-03-04T05:20:30;102259.97;;;7.40;100.00
71638;BME280;59485;43.542;-5.676;2023-03-04T05:23:05;102258.84;;;7.42;100.00
71638;BME280;59485;43.542;-5.676;2023-03-04T05:25:30;102265.13;;;7.43;100.00
71638;BME280;59485;43.542;-5.676;2023-03-04T05:27:56;102267.16;;;7.41;100.00
71638;BME280;59485;43.542;-5.676;2023-03-04T05:30:21;102268.16;;;7.40;100.00
71638;BME280;59485;43.542;-5.676;2023-03-04T05:32:46;102266.28;;;7.40;100.00
71638;BME280;59485;43.542;-5.676;2023-03-04T05:35:18;102263.44;;;7.42;100.00
71638;BME280;59485;43.542;-5.676;2023-03-04T05:37:43;102264.44;;;7.41;100.00
71638;BME280;59485;43.542;-5.676;2023-03-04T05:40:22;102270.13;;;7.38;100.00
71638;BME280;59485;43.542;-5.676;2023-03-04T05:42:49;102266.53;;;7.37;100.00
71638;BME280;59485;43.542;-5.676;2023-03-04T05:45:15;102265.22;;;7.32;100.00
71638;BME280;59485;43.542;-5.676;2023-03-04T05:47:40;102267.34;;;7.28;100.00
71638;BME280;59485;43.542;-5.676;2023-03-04T05:50:06;102267.94;;;7.32;100.00
71638;BME280;59485;43.542;-5.676;2023-03-04T05:52:31;102267.22;;;7.30;100.00
71638;BME280;59485;43.542;-5.676;2023-03-04T05:55:06;102268.47;;;7.26;100.00
71638;BME280;59485;43.542;-5.676;2023-03-04T05:57:35;102278.88;;;7.32;100.00
71638;BME280;59485;43.542;-5.676;2023-03-04T06:00:09;102275.59;;;7.38;100.00
71638;BME280;59485;43.542;-5.676;2023-03-04T06:02:36;102272.41;;;7.33;100.00
71638;BME280;59485;43.542;-5.676;2023-03-04T06:05:08;102274.13;;;7.34;100.00
71638;BME280;59485;43.542;-5.676;2023-03-04T06:10:13;102280.09;;;7.28;100.00
71638;BME280;59485;43.542;-5.676;2023-03-04T06:15:10;102285.56;;;7.28;100.00
71638;BME280;59485;43.542;-5.676;2023-03-04T06:17:36;102287.56;;;7.26;100.00
71638;BME280;59485;43.542;-5.676;2023-03-04T06:20:29;102293.50;;;7.31;100.00
71638;BME280;59485;43.542;-5.676;2023-03-04T06:22:55;102285.19;;;7.32;100.00
71638;BME280;59485;43.542;-5.676;2023-03-04T06:25:20;102292.50;;;7.32;100.00
71638;BME280;59485;43.542;-5.676;2023-03-04T06:27:46;102288.03;;;7.31;100.00
71638;BME280;59485;43.542;-5.676;2023-03-04T06:30:14;102298.94;;;7.31;100.00
71638;BME280;59485;43.542;-5.676;2023-03-04T06:32:39;102291.75;;;7.30;100.00
71638;BME280;59485;43.542;-5.676;2023-03-04T06:35:20;102296.59;;;7.26;100.00
71638;BME280;59485;43.542;-5.676;2023-03-04T06:37:45;102296.59;;;7.26;100.00
71638;BME280;59485;43.542;-5.676;2023-03-04T06:40:11;102297.75;;;7.24;100.00
71638;BME280;59485;43.542;-5.676;2023-03-04T06:42:54;102297.59;;;7.25;100.00
71638;BME280;59485;43.542;-5.676;2023-03-04T06:45:37;102301.94;;;7.28;100.00
71638;BME280;59485;43.542;-5.676;2023-03-04T06:48:02;102304.78;;;7.26;100.00
71638;BME280;59485;43.542;-5.676;2023-03-04T06:50:34;102309.53;;;7.24;100.00
71638;BME280;59485;43.542;-5.676;2023-03-04T06:53:00;102305.94;;;7.24;100.00
71638;BME280;59485;43.542;-5.676;2023-03-04T06:55:25;102303.19;;;7.24;100.00
71638;BME280;59485;43.542;-5.676;2023-03-04T07:05:39;102315.22;;;7.21;100.00
71638;BME280;59485;43.542;-5.676;2023-03-04T07:08:04;102313.50;;;7.20;100.00
71638;BME280;59485;43.542;-5.676;2023-03-04T07:10:33;102317.09;;;7.21;100.00
71638;BME280;59485;43.542;-5.676;2023-03-04T07:15:52;102323.53;;;7.20;100.00
71638;BME280;59485;43.542;-5.676;2023-03-04T07:18:24;102320.56;;;7.23;100.00
71638;BME280;59485;43.542;-5.676;2023-03-04T07:21:00;102318.81;;;7.22;100.00
71638;BME280;59485;43.542;-5.676;2023-03-04T07:23:41;102326.75;;;7.25;100.00
71638;BME280;59485;43.542;-5.676;2023-03-04T07:31:33;102328.38;;;7.16;100.00
71638;BME280;59485;43.542;-5.676;2023-03-04T07:34:06;102325.53;;;7.18;100.00
71638;BME280;59485;43.542;-5.676;2023-03-04T07:36:32;102327.53;;;7.15;100.00
71638;BME280;59485;43.542;-5.676;2023-03-04T07:41:24;102327.25;;;7.19;100.00
71638;BME280;59485;43.542;-5.676;2023-03-04T07:46:18;102341.88;;;7.18;100.00
71638;BME280;59485;43.542;-5.676;2023-03-04T07:48:44;102342.63;;;7.20;100.00
71638;BME280;59485;43.542;-5.676;2023-03-04T07:51:19;102338.16;;;7.19;100.00
71638;BME280;59485;43.542;-5.676;2023-03-04T07:56:28;102346.22;;;7.20;100.00
71638;BME280;59485;43.542;-5.676;2023-03-04T07:58:54;102346.34;;;7.19;100.00
71638;BME280;59485;43.542;-5.676;2023-03-04T08:01:25;102349.56;;;7.24;100.00
71638;BME280;59485;43.542;-5.676;2023-03-04T08:03:50;102351.81;;;7.19;100.00
71638;BME280;59485;43.542;-5.676;2023-03-04T08:06:16;102359.72;;;7.22;100.00
71638;BME280;59485;43.542;-5.676;2023-03-04T08:08:46;102345.34;;;7.20;100.00
71638;BME280;59485;43.542;-5.676;2023-03-04T08:11:16;102353.53;;;7.20;100.00
71638;BME280;59485;43.542;-5.676;2023-03-04T08:13:42;102348.06;;;7.20;100.00
71638;BME280;59485;43.542;-5.676;2023-03-04T08:16:08;102350.69;;;7.21;100.00
71638;BME280;59485;43.542;-5.676;2023-03-04T08:18:34;102348.81;;;7.22;100.00
71638;BME280;59485;43.542;-5.676;2023-03-04T08:21:00;102346.97;;;7.22;100.00
71638;BME280;59485;43.542;-5.676;2023-03-04T08:23:25;102359.59;;;7.23;100.00
71638;BME280;59485;43.542;-5.676;2023-03-04T08:25:51;102360.72;;;7.21;100.00
71638;BME280;59485;43.542;-5.676;2023-03-04T08:28:16;102356.00;;;7.23;100.00
71638;BME280;59485;43.542;-5.676;2023-03-04T08:30:50;102358.47;;;7.26;100.00
71638;BME280;59485;43.542;-5.676;2023-03-04T08:33:16;102358.22;;;7.29;100.00
71638;BME280;59485;43.542;-5.676;2023-03-04T08:35:47;102358.94;;;7.31;100.00
71638;BME280;59485;43.542;-5.676;2023-03-04T08:38:15;102354.94;;;7.35;100.00
71638;BME280;59485;43.542;-5.676;2023-03-04T08:43:30;102363.09;;;7.46;100.00
71638;BME280;59485;43.542;-5.676;2023-03-04T08:45:56;102357.38;;;7.49;100.00
71638;BME280;59485;43.542;-5.676;2023-03-04T08:48:21;102358.84;;;7.53;100.00
71638;BME280;59485;43.542;-5.676;2023-03-04T08:50:47;102364.78;;;7.58;100.00
71638;BME280;59485;43.542;-5.676;2023-03-04T08:53:16;102349.97;;;7.61;100.00
71638;BME280;59485;43.542;-5.676;2023-03-04T08:55:42;102352.06;;;7.68;100.00
71638;BME280;59485;43.542;-5.676;2023-03-04T08:58:08;102346.06;;;7.74;100.00
71638;BME280;59485;43.542;-5.676;2023-03-04T09:00:34;102359.84;;;7.73;100.00
71638;BME280;59485;43.542;-5.676;2023-03-04T09:03:00;102355.13;;;7.75;100.00
71638;BME280;59485;43.542;-5.676;2023-03-04T09:05:26;102345.81;;;7.77;100.00
71638;BME280;59485;43.542;-5.676;2023-03-04T09:07:51;102355.94;;;7.86;100.00
71638;BME280;59485;43.542;-5.676;2023-03-04T09:10:18;102360.97;;;7.91;100.00
71638;BME280;59485;43.542;-5.676;2023-03-04T09:12:43;102349.66;;;7.96;100.00
71638;BME280;59485;43.542;-5.676;2023-03-04T09:15:09;102343.66;;;8.02;100.00
71638;BME280;59485;43.542;-5.676;2023-03-04T09:17:35;102345.69;;;8.09;100.00
71638;BME280;59485;43.542;-5.676;2023-03-04T09:20:00;102350.47;;;8.17;100.00
71638;BME280;59485;43.542;-5.676;2023-03-04T09:22:26;102348.06;;;8.23;100.00
71638;BME280;59485;43.542;-5.676;2023-03-04T09:24:51;102348.41;;;8.30;100.00
71638;BME280;59485;43.542;-5.676;2023-03-04T09:27:16;102345.00;;;8.38;100.00
71638;BME280;59485;43.542;-5.676;2023-03-04T09:29:42;102347.47;;;8.41;100.00
71638;BME280;59485;43.542;-5.676;2023-03-04T09:32:08;102341.03;;;8.51;100.00
71638;BME280;59485;43.542;-5.676;2023-03-04T09:34:33;102343.91;;;8.59;100.00
71638;BME280;59485;43.542;-5.676;2023-03-04T09:36:59;102339.78;;;8.65;100.00
71638;BME280;59485;43.542;-5.676;2023-03-04T09:39:24;102344.94;;;8.68;100.00
71638;BME280;59485;43.542;-5.676;2023-03-04T09:41:51;102337.09;;;8.75;100.00
71638;BME280;59485;43.542;-5.676;2023-03-04T09:47:25;102343.88;;;8.90;100.00
71638;BME280;59485;43.542;-5.676;2023-03-04T09:49:58;102328.75;;;8.95;100.00
71638;BME280;59485;43.542;-5.676;2023-03-04T09:58:41;102331.81;;;9.12;100.00
71638;BME280;59485;43.542;-5.676;2023-03-04T10:01:04;102329.66;;;9.25;100.00
71638;BME280;59485;43.542;-5.676;2023-03-04T10:03:42;102331.09;;;9.38;100.00
71638;BME280;59485;43.542;-5.676;2023-03-04T10:06:15;102331.94;;;9.49;100.00
71638;BME280;59485;43.542;-5.676;2023-03-04T10:08:45;102325.16;;;9.62;100.00
71638;BME280;59485;43.542;-5.676;2023-03-04T10:16:19;102322.19;;;10.02;100.00
71638;BME280;59485;43.542;-5.676;2023-03-04T10:26:38;102317.88;;;10.46;100.00
71638;BME280;59485;43.542;-5.676;2023-03-04T10:37:42;102306.84;;;11.01;100.00
71638;BME280;59485;43.542;-5.676;2023-03-04T10:40:17;102308.41;;;11.21;100.00
71638;BME280;59485;43.542;-5.676;2023-03-04T10:42:57;102304.28;;;11.35;100.00
71638;BME280;59485;43.542;-5.676;2023-03-04T10:47:54;102293.19;;;11.62;100.00
71638;BME280;59485;43.542;-5.676;2023-03-04T10:50:32;102295.97;;;11.71;100.00
71638;BME280;59485;43.542;-5.676;2023-03-04T11:15:21;102275.88;;;11.88;100.00
71638;BME280;59485;43.542;-5.676;2023-03-04T11:20:38;102274.94;;;11.79;100.00
71638;BME280;59485;43.542;-5.676;2023-03-04T11:23:16;102279.25;;;11.82;100.00
71638;BME280;59485;43.542;-5.676;2023-03-04T11:31:04;102275.72;;;11.89;100.00
71638;BME280;59485;43.542;-5.676;2023-03-04T11:45:56;102256.22;;;12.09;100.00
71638;BME280;59485;43.542;-5.676;2023-03-04T12:05:26;102236.25;;;12.40;100.00
71638;BME280;59485;43.542;-5.676;2023-03-04T12:11:19;102229.03;;;12.39;100.00
71638;BME280;59485;43.542;-5.676;2023-03-04T12:14:01;102231.47;;;12.43;100.00
71638;BME280;59485;43.542;-5.676;2023-03-04T12:22:29;102213.25;;;12.50;100.00
71638;BME280;59485;43.542;-5.676;2023-03-04T13:18:42;102108.59;;;12.59;100.00
71638;BME280;59485;43.542;-5.676;2023-03-04T13:23:40;102099.09;;;12.54;100.00
71638;BME280;59485;43.542;-5.676;2023-03-04T13:26:18;102102.22;;;12.51;100.00
71638;BME280;59485;43.542;-5.676;2023-03-04T13:28:45;102092.06;;;12.43;100.00
71638;BME280;59485;43.542;-5.676;2023-03-04T13:31:36;102091.16;;;12.26;100.00
71638;BME280;59485;43.542;-5.676;2023-03-04T13:34:42;102088.75;;;12.15;100.00
71638;BME280;59485;43.542;-5.676;2023-03-04T13:53:36;102074.84;;;12.17;100.00
71638;BME280;59485;43.542;-5.676;2023-03-04T13:59:40;102063.50;;;12.28;100.00
71638;BME280;59485;43.542;-5.676;2023-03-04T14:33:30;102030.84;;;12.65;100.00
71638;BME280;59485;43.542;-5.676;2023-03-04T14:38:40;102022.44;;;12.67;100.00
71638;BME280;59485;43.542;-5.676;2023-03-04T14:43:55;102020.53;;;12.67;100.00
71638;BME280;59485;43.542;-5.676;2023-03-04T17:07:13;101950.63;;;14.02;100.00
71638;BME280;59485;43.542;-5.676;2023-03-04T17:15:13;101950.28;;;13.97;100.00
71638;BME280;59485;43.542;-5.676;2023-03-04T17:18:08;101942.34;;;14.02;100.00
71638;BME280;59485;43.542;-5.676;2023-03-04T17:35:06;101945.88;;;13.65;100.00
71638;BME280;59485;43.542;-5.676;2023-03-04T17:43:07;101950.50;;;13.41;100.00
71638;BME280;59485;43.542;-5.676;2023-03-04T17:56:37;101956.28;;;13.07;100.00
71638;BME280;59485;43.542;-5.676;2023-03-04T17:59:19;101955.00;;;12.87;100.00
71638;BME280;59485;43.542;-5.676;2023-03-04T18:05:07;101952.81;;;12.58;100.00
71638;BME280;59485;43.542;-5.676;2023-03-04T18:07:54;101963.69;;;12.44;100.00
71638;BME280;59485;43.542;-5.676;2023-03-04T18:10:24;101960.91;;;12.27;100.00
71638;BME280;59485;43.542;-5.676;2023-03-04T18:12:50;101961.94;;;12.18;100.00
71638;BME280;59485;43.542;-5.676;2023-03-04T18:15:15;101960.59;;;12.06;100.00
71638;BME280;59485;43.542;-5.676;2023-03-04T18:17:58;101957.31;;;11.94;100.00
71638;BME280;59485;43.542;-5.676;2023-03-04T18:20:26;101963.28;;;11.82;100.00
71638;BME280;59485;43.542;-5.676;2023-03-04T18:23:09;101962.03;;;11.68;100.00
71638;BME280;59485;43.542;-5.676;2023-03-04T18:25:35;101966.66;;;11.59;100.00
71638;BME280;59485;43.542;-5.676;2023-03-04T18:28:00;101973.69;;;11.54;100.00
71638;BME280;59485;43.542;-5.676;2023-03-04T18:30:26;101972.78;;;11.45;100.00
71638;BME280;59485;43.542;-5.676;2023-03-04T18:33:04;101972.09;;;11.35;100.00
71638;BME280;59485;43.542;-5.676;2023-03-04T18:38:00;101976.81;;;11.17;100.00
71638;BME280;59485;43.542;-5.676;2023-03-04T18:40:47;101976.44;;;11.12;100.00
71638;BME280;59485;43.542;-5.676;2023-03-04T18:43:13;101979.47;;;11.01;100.00
71638;BME280;59485;43.542;-5.676;2023-03-04T18:45:48;101979.81;;;10.98;100.00
71638;BME280;59485;43.542;-5.676;2023-03-04T18:51:07;101981.81;;;10.87;100.00
71638;BME280;59485;43.542;-5.676;2023-03-04T18:53:33;101988.81;;;10.82;100.00
71638;BME280;59485;43.542;-5.676;2023-03-04T18:55:59;101992.34;;;10.74;100.00
71638;BME280;59485;43.542;-5.676;2023-03-04T19:01:09;101990.56;;;10.65;100.00
71638;BME280;59485;43.542;-5.676;2023-03-04T19:03:35;101992.09;;;10.60;100.00
71638;BME280;59485;43.542;-5.676;2023-03-04T19:06:11;101990.84;;;10.54;100.00
71638;BME280;59485;43.542;-5.676;2023-03-04T19:08:45;102003.31;;;10.48;100.00
71638;BME280;59485;43.542;-5.676;2023-03-04T19:11:11;101994.00;;;10.41;100.00
71638;BME280;59485;43.542;-5.676;2023-03-04T19:13:37;101996.03;;;10.39;100.00
71638;BME280;59485;43.542;-5.676;2023-03-04T19:16:02;102001.84;;;10.36;100.00
71638;BME280;59485;43.542;-5.676;2023-03-04T19:18:28;101995.81;;;10.33;100.00
71638;BME280;59485;43.542;-5.676;2023-03-04T19:20:53;102001.59;;;10.30;100.00
71638;BME280;59485;43.542;-5.676;2023-03-04T19:23:22;101998.50;;;10.25;100.00
71638;BME280;59485;43.542;-5.676;2023-03-04T19:26:04;102001.38;;;10.23;100.00
71638;BME280;59485;43.542;-5.676;2023-03-04T19:28:29;102001.00;;;10.18;100.00
71638;BME280;59485;43.542;-5.676;2023-03-04T19:30:54;101992.19;;;10.14;100.00
71638;BME280;59485;43.542;-5.676;2023-03-04T19:33:34;102004.81;;;10.07;100.00
71638;BME280;59485;43.542;-5.676;2023-03-04T19:36:00;102008.56;;;10.06;100.00
71638;BME280;59485;43.542;-5.676;2023-03-04T19:38:25;102007.00;;;10.04;100.00
71638;BME280;59485;43.542;-5.676;2023-03-04T19:40:51;102011.25;;;9.98;100.00
71638;BME280;59485;43.542;-5.676;2023-03-04T19:43:31;102013.25;;;9.96;100.00
71638;BME280;59485;43.542;-5.676;2023-03-04T19:48:36;102012.31;;;9.88;100.00
71638;BME280;59485;43.542;-5.676;2023-03-04T19:56:14;102003.88;;;9.81;100.00
71638;BME280;59485;43.542;-5.676;2023-03-04T20:12:14;102008.31;;;9.64;100.00
71638;BME280;59485;43.542;-5.676;2023-03-04T20:28:01;102007.66;;;9.53;100.00
71638;BME280;59485;43.542;-5.676;2023-03-04T20:30:33;102002.19;;;9.53;100.00
71638;BME280;59485;43.542;-5.676;2023-03-04T20:35:29;102011.69;;;9.49;100.00
71638;BME280;59485;43.542;-5.676;2023-03-04T20:43:11;102014.34;;;9.40;100.00
71638;BME280;59485;43.542;-5.676;2023-03-04T20:45:43;102009.19;;;9.37;100.00
71638;BME280;59485;43.542;-5.676;2023-03-04T20:48:14;102017.41;;;9.37;100.00
71638;BME280;59485;43.542;-5.676;2023-03-04T20:50:40;102015.69;;;9.36;100.00
71638;BME280;59485;43.542;-5.676;2023-03-04T20:55:36;102016.13;;;9.32;100.00
71638;BME280;59485;43.542;-5.676;2023-03-04T20:58:01;102016.97;;;9.32;100.00
71638;BME280;59485;43.542;-5.676;2023-03-04T21:00:40;102019.03;;;9.30;100.00
71638;BME280;59485;43.542;-5.676;2023-03-04T21:23:45;102016.06;;;9.14;100.00
71638;BME280;59485;43.542;-5.676;2023-03-04T21:26:26;102009.03;;;9.12;100.00
71638;BME280;59485;43.542;-5.676;2023-03-04T21:53:00;102027.41;;;8.92;100.00
71638;BME280;59485;43.542;-5.676;2023-03-04T21:55:25;102030.13;;;8.92;100.00
71638;BME280;59485;43.542;-5.676;2023-03-04T21:57:51;102027.69;;;8.89;100.00